createdAt,value
2022-12-19T00:01:01.947Z,68.57
2022-12-19T00:03:28.684Z,69.40
2022-12-19T00:05:55.437Z,68.84
2022-12-19T00:08:22.099Z,69.16
2022-12-19T00:11:00.256Z,68.90
2022-12-19T00:13:26.917Z,68.92
2022-12-19T00:15:54.895Z,68.78
2022-12-19T00:18:21.590Z,68.57
2022-12-19T00:20:58.590Z,69.27
2022-12-19T00:23:25.258Z,69.36
2022-12-19T00:25:51.923Z,69.28
2022-12-19T00:28:18.878Z,69.46
2022-12-19T00:30:46.917Z,69.78
2022-12-19T00:33:13.554Z,69.70
2022-12-19T00:35:40.207Z,69.23
2022-12-19T00:38:06.841Z,69.37
2022-12-19T00:40:33.473Z,69.19
2022-12-19T00:43:00.095Z,69.76
2022-12-19T00:45:27.366Z,69.13
2022-12-19T00:47:55.822Z,69.40
2022-12-19T00:50:22.458Z,69.59
2022-12-19T00:52:49.096Z,68.76
2022-12-19T00:55:18.721Z,69.70
2022-12-19T00:57:46.405Z,69.83
2022-12-19T01:00:13.545Z,69.51
2022-12-19T01:02:40.301Z,69.37
2022-12-19T01:05:07.238Z,69.64
2022-12-19T01:07:33.885Z,68.62
2022-12-19T01:10:00.532Z,68.49
2022-12-19T01:12:27.169Z,69.56
2022-12-19T01:14:55.199Z,68.80
2022-12-19T01:17:30.778Z,68.35
2022-12-19T01:19:57.415Z,68.58
2022-12-19T01:22:24.035Z,68.53
2022-12-19T01:24:50.669Z,69.35
2022-12-19T01:27:17.363Z,69.45
2022-12-19T01:29:52.554Z,69.49
2022-12-19T01:32:20.484Z,69.75
2022-12-19T01:34:47.137Z,68.94
2022-12-19T01:37:13.784Z,68.96
2022-12-19T01:39:40.466Z,69.35
2022-12-19T01:42:19.586Z,69.04
2022-12-19T01:45:05.202Z,68.89
2022-12-19T01:47:31.873Z,69.22
2022-12-19T01:49:58.493Z,69.20
2022-12-19T01:52:25.143Z,68.92
2022-12-19T01:54:51.876Z,69.22
2022-12-19T01:57:18.532Z,69.79
2022-12-19T01:59:48.330Z,70.14
2022-12-19T02:02:35.457Z,70.27
2022-12-19T02:05:02.215Z,70.70
2022-12-19T02:07:28.856Z,72.24
2022-12-19T02:09:57.335Z,72.53
2022-12-19T02:12:24.623Z,72.68
2022-12-19T02:14:51.510Z,72.70
2022-12-19T02:17:35.353Z,73.08
2022-12-19T02:20:22.624Z,72.34
2022-12-19T02:23:07.980Z,71.60
2022-12-19T02:25:42.556Z,71.42
2022-12-19T02:28:45.815Z,71.73
2022-12-19T02:31:24.658Z,71.41
2022-12-19T02:34:30.510Z,71.35
2022-12-19T02:37:11.786Z,70.98
2022-12-19T02:39:52.721Z,70.85
2022-12-19T02:42:32.078Z,70.74
2022-12-19T02:44:58.954Z,71.27
2022-12-19T02:47:25.604Z,71.04
2022-12-19T02:49:52.235Z,71.47
2022-12-19T02:52:18.753Z,71.48
2022-12-19T02:54:45.831Z,71.80
2022-12-19T02:57:20.031Z,71.94
2022-12-19T03:00:02.839Z,72.00
2022-12-19T03:02:48.511Z,71.24
2022-12-19T03:05:59.393Z,69.97
2022-12-19T03:08:45.998Z,70.71
2022-12-19T03:11:13.295Z,70.96
2022-12-19T03:13:56.499Z,70.80
2022-12-19T03:16:23.246Z,71.16
2022-12-19T03:18:49.966Z,71.40
2022-12-19T03:21:20.786Z,71.30
2022-12-19T03:23:47.461Z,71.39
2022-12-19T03:26:18.990Z,71.80
2022-12-19T03:28:52.792Z,71.44
2022-12-19T03:31:20.837Z,71.25
2022-12-19T03:33:48.127Z,70.79
2022-12-19T03:36:17.414Z,70.11
2022-12-19T03:38:44.070Z,70.11
2022-12-19T03:41:11.007Z,70.17
2022-12-19T03:43:37.649Z,70.37
2022-12-19T03:46:18.820Z,69.60
2022-12-19T03:48:47.388Z,69.43
2022-12-19T03:51:35.732Z,69.47
2022-12-19T03:54:24.448Z,68.79
2022-12-19T03:57:09.528Z,68.59
2022-12-19T03:59:51.108Z,68.44
2022-12-19T04:02:18.455Z,68.32
2022-12-19T04:04:47.019Z,68.77
2022-12-19T04:07:13.745Z,68.99
2022-12-19T04:09:41.681Z,68.95
2022-12-19T04:12:11.387Z,69.10
2022-12-19T04:14:38.024Z,68.85
2022-12-19T04:17:07.498Z,69.43
2022-12-19T04:20:02.990Z,67.83
2022-12-19T04:22:32.307Z,68.02
2022-12-19T04:24:59.262Z,68.55
2022-12-19T04:27:25.922Z,67.27
2022-12-19T04:29:54.640Z,68.18
2022-12-19T04:32:21.302Z,68.01
2022-12-19T04:34:47.949Z,66.79
2022-12-19T04:37:14.585Z,67.18
2022-12-19T04:39:41.222Z,68.08
2022-12-19T04:42:07.842Z,67.30
2022-12-19T04:44:34.487Z,66.98
2022-12-19T04:47:01.126Z,67.07
2022-12-19T04:49:27.744Z,67.19
2022-12-19T04:51:54.468Z,67.27
2022-12-19T04:54:21.729Z,66.97
2022-12-19T04:56:48.367Z,65.61
2022-12-19T04:59:14.976Z,66.53
2022-12-19T05:01:41.741Z,66.10
2022-12-19T05:04:08.515Z,66.61
2022-12-19T05:06:35.190Z,65.82
2022-12-19T05:09:01.847Z,65.38
2022-12-19T05:11:28.500Z,64.94
2022-12-19T05:13:55.157Z,65.44
2022-12-19T05:16:21.879Z,65.53
2022-12-19T05:18:48.537Z,65.64
2022-12-19T05:21:15.180Z,65.01
2022-12-19T05:23:41.841Z,64.69
2022-12-19T05:26:08.479Z,64.01
2022-12-19T05:28:35.132Z,63.02
2022-12-19T05:31:09.185Z,64.00
2022-12-19T05:33:36.148Z,64.43
2022-12-19T05:36:02.767Z,63.74
2022-12-19T05:38:29.419Z,64.75
2022-12-19T05:40:56.061Z,64.48
2022-12-19T05:43:22.837Z,64.57
2022-12-19T05:45:49.626Z,64.10
2022-12-19T05:48:16.280Z,64.88
2022-12-19T05:50:47.547Z,64.97
2022-12-19T05:53:14.164Z,65.32
2022-12-19T05:55:41.081Z,65.13
2022-12-19T05:58:07.729Z,65.24
2022-12-19T06:00:34.362Z,64.56
2022-12-19T06:03:01.052Z,65.04
2022-12-19T06:05:27.760Z,65.32
2022-12-19T06:07:54.387Z,64.32
2022-12-19T06:10:21.058Z,64.08
2022-12-19T06:12:47.730Z,64.91
2022-12-19T06:15:14.373Z,64.71
2022-12-19T06:17:41.188Z,64.57
2022-12-19T06:20:08.216Z,65.45
2022-12-19T06:22:34.896Z,65.98
2022-12-19T06:25:01.552Z,66.47
2022-12-19T06:27:28.177Z,66.89
2022-12-19T06:29:54.809Z,66.15
2022-12-19T06:32:21.476Z,65.69
2022-12-19T06:35:03.667Z,65.88
2022-12-19T06:37:30.950Z,66.46
2022-12-19T06:39:57.608Z,65.64
2022-12-19T06:42:24.437Z,65.43
2022-12-19T06:44:56.238Z,66.56
2022-12-19T06:47:23.176Z,66.13
2022-12-19T06:49:49.837Z,66.71
2022-12-19T06:52:17.037Z,65.76
2022-12-19T06:54:43.674Z,65.21
2022-12-19T06:57:10.313Z,66.21
2022-12-19T06:59:37.319Z,65.59
2022-12-19T07:02:18.491Z,66.79
2022-12-19T07:04:52.780Z,66.85
2022-12-19T07:07:19.503Z,66.49
2022-12-19T07:09:46.152Z,66.49
2022-12-19T07:12:12.780Z,66.37
2022-12-19T07:14:39.382Z,66.73
2022-12-19T07:17:06.037Z,66.54
2022-12-19T07:19:32.704Z,67.42
2022-12-19T07:21:59.798Z,67.26
2022-12-19T07:24:26.452Z,67.17
2022-12-19T07:26:53.105Z,66.96
2022-12-19T07:29:19.748Z,66.95
2022-12-19T07:31:46.491Z,66.13
2022-12-19T07:34:13.126Z,66.32
2022-12-19T07:36:39.765Z,67.34
2022-12-19T07:39:06.417Z,67.39
2022-12-19T07:41:35.653Z,67.28
2022-12-19T07:44:02.858Z,66.76
2022-12-19T07:46:30.002Z,67.07
2022-12-19T07:48:56.629Z,66.89
2022-12-19T07:51:23.280Z,66.35
2022-12-19T07:53:49.915Z,66.89
2022-12-19T07:56:16.565Z,66.85
2022-12-19T07:58:43.339Z,66.52
2022-12-19T08:01:10.117Z,65.92
2022-12-19T08:03:36.905Z,65.60
2022-12-19T08:06:04.858Z,66.09
2022-12-19T08:08:31.569Z,65.72
2022-12-19T08:11:08.232Z,66.00
2022-12-19T08:13:39.720Z,64.56
2022-12-19T08:16:06.656Z,65.43
2022-12-19T08:18:33.296Z,62.38
2022-12-19T08:20:59.949Z,61.57
2022-12-19T08:23:26.653Z,62.06
2022-12-19T08:26:03.396Z,61.01
2022-12-19T08:28:30.967Z,59.72
2022-12-19T08:30:57.683Z,60.00
2022-12-19T08:33:24.359Z,60.00
2022-12-19T08:35:51.016Z,60.41
2022-12-19T08:38:17.710Z,60.35
2022-12-19T08:40:47.339Z,60.33
2022-12-19T08:43:14.364Z,59.71
2022-12-19T08:45:41.069Z,58.08
2022-12-19T08:48:07.745Z,59.87
2022-12-19T08:50:34.399Z,59.95
2022-12-19T08:53:01.098Z,60.38
2022-12-19T08:55:27.769Z,61.00
2022-12-19T08:57:56.415Z,61.86
2022-12-19T09:00:23.106Z,62.41
2022-12-19T09:02:51.087Z,62.58
2022-12-19T09:06:01.028Z,63.67
2022-12-19T09:08:04.704Z,63.46
2022-12-19T09:10:31.384Z,64.83
2022-12-19T09:12:58.487Z,65.94
2022-12-19T09:15:25.147Z,66.42
2022-12-19T09:17:51.820Z,66.96
2022-12-19T09:20:23.174Z,67.24
2022-12-19T09:22:50.414Z,68.04
2022-12-19T09:25:17.098Z,68.67
2022-12-19T09:28:17.970Z,68.46
2022-12-19T09:30:30.432Z,68.18
2022-12-19T09:32:58.524Z,68.79
2022-12-19T09:35:30.040Z,68.75
2022-12-19T09:38:00.356Z,68.24
2022-12-19T09:40:28.052Z,68.02
2022-12-19T09:43:41.404Z,67.30
2022-12-19T09:46:18.719Z,67.05
2022-12-19T09:48:54.200Z,66.70
2022-12-19T09:51:57.347Z,66.38
2022-12-19T09:54:27.971Z,66.34
2022-12-19T09:57:02.863Z,65.58
2022-12-19T09:59:45.968Z,65.69
2022-12-19T10:02:33.868Z,64.17
2022-12-19T10:05:41.550Z,64.11
2022-12-19T10:08:09.622Z,63.74
2022-12-19T10:12:36.203Z,63.29
2022-12-19T10:14:22.134Z,62.64
2022-12-19T10:17:23.255Z,60.88
2022-12-19T10:19:50.846Z,60.68
2022-12-19T10:22:29.656Z,60.99
2022-12-19T10:25:08.448Z,60.90
2022-12-19T10:27:59.287Z,61.23
2022-12-19T10:30:27.949Z,61.00
2022-12-19T10:33:06.960Z,60.82
2022-12-19T10:35:41.420Z,61.79
2022-12-19T10:38:11.006Z,60.89
2022-12-19T10:40:49.885Z,61.44
2022-12-19T10:43:33.684Z,61.59
2022-12-19T10:46:04.045Z,60.33
2022-12-19T10:48:31.626Z,61.35
2022-12-19T10:50:58.798Z,60.80
2022-12-19T10:53:32.698Z,61.70
2022-12-19T10:56:03.343Z,61.73
2022-12-19T10:58:35.214Z,62.04
2022-12-19T11:01:15.984Z,61.04
2022-12-19T11:03:46.594Z,60.94
2022-12-19T11:06:35.260Z,61.28
2022-12-19T11:09:20.527Z,61.63
2022-12-19T11:14:33.073Z,61.44
2022-12-19T11:19:15.078Z,62.03
2022-12-19T11:24:39.487Z,62.22
2022-12-19T11:29:26.190Z,62.23
2022-12-19T11:29:37.049Z,61.76
2022-12-19T11:30:46.077Z,61.89
2022-12-19T11:30:59.414Z,61.93
2022-12-19T11:34:22.525Z,62.07
2022-12-19T11:37:00.294Z,61.95
2022-12-19T11:39:50.069Z,62.43
2022-12-19T11:42:25.915Z,61.93
2022-12-19T11:45:14.992Z,62.04
2022-12-19T11:47:48.568Z,62.14
2022-12-19T11:50:18.543Z,61.67
2022-12-19T11:53:26.719Z,60.79
2022-12-19T11:55:56.075Z,60.66
2022-12-19T11:58:22.861Z,60.48
2022-12-19T12:01:02.105Z,60.72
2022-12-19T12:03:54.746Z,60.81
2022-12-19T12:06:34.380Z,62.04
2022-12-19T12:13:22.354Z,61.04
2022-12-19T12:21:00.189Z,61.26
2022-12-19T12:27:31.035Z,61.60
2022-12-19T12:30:59.799Z,60.81
2022-12-19T12:31:13.349Z,60.87
2022-12-19T12:31:15.365Z,60.90
2022-12-19T12:31:49.894Z,61.01
2022-12-19T12:31:52.581Z,61.25
2022-12-19T12:35:42.533Z,60.44
2022-12-19T12:40:00.483Z,60.34
2022-12-19T12:42:45.769Z,60.43
2022-12-19T12:45:19.668Z,60.22
2022-12-19T12:47:48.113Z,60.99
2022-12-19T12:50:15.987Z,60.64
2022-12-19T12:52:44.353Z,60.38
2022-12-19T12:55:31.244Z,60.88
2022-12-19T12:57:58.007Z,61.44
2022-12-19T13:00:31.829Z,61.48
2022-12-19T13:03:11.439Z,62.05
2022-12-19T13:05:51.516Z,62.31
2022-12-19T13:08:34.170Z,62.32
2022-12-19T13:11:02.630Z,62.49
2022-12-19T13:13:58.689Z,62.14
2022-12-19T13:16:43.745Z,61.25
2022-12-19T13:19:25.861Z,61.18
2022-12-19T13:22:03.784Z,61.20
2022-12-19T13:24:49.154Z,60.74
2022-12-19T13:27:18.529Z,60.81
2022-12-19T13:30:00.312Z,61.26
2022-12-19T13:32:27.835Z,61.20
2022-12-19T13:35:56.523Z,60.71
2022-12-19T13:40:01.196Z,60.98
2022-12-19T13:41:00.439Z,60.16
2022-12-19T13:43:47.218Z,60.55
2022-12-19T13:46:36.954Z,61.48
2022-12-19T13:49:09.765Z,62.08
2022-12-19T13:51:47.212Z,62.03
2022-12-19T13:54:25.978Z,62.15
2022-12-19T13:56:53.256Z,62.49
2022-12-19T13:59:20.826Z,62.57
2022-12-19T14:01:47.596Z,62.71
2022-12-19T14:04:30.621Z,62.71
2022-12-19T14:07:02.140Z,63.20
2022-12-19T14:11:28.300Z,62.19
2022-12-19T14:13:56.536Z,61.27
2022-12-19T14:15:27.360Z,61.67
2022-12-19T14:17:54.112Z,61.30
2022-12-19T14:22:01.896Z,60.43
2022-12-19T14:23:12.552Z,59.95
2022-12-19T14:28:15.730Z,60.08
2022-12-19T14:29:03.302Z,60.04
2022-12-19T14:31:30.047Z,60.92
2022-12-19T14:34:43.386Z,60.62
2022-12-19T14:36:51.987Z,60.38
2022-12-19T14:39:24.342Z,60.49
2022-12-19T14:42:02.144Z,60.88
2022-12-19T14:52:08.147Z,61.47
2022-12-19T14:54:12.864Z,60.60
2022-12-19T14:54:16.335Z,60.77
2022-12-19T14:54:26.802Z,61.14
2022-12-19T14:59:01.267Z,60.04
2022-12-19T15:01:29.976Z,60.67
2022-12-19T15:04:49.245Z,60.54
2022-12-19T15:07:08.551Z,59.68
2022-12-19T15:10:59.935Z,58.95
2022-12-19T15:14:48.756Z,60.27
2022-12-19T15:15:44.921Z,61.10
2022-12-19T15:18:24.694Z,60.92
2022-12-19T15:20:51.956Z,61.64
2022-12-19T15:23:22.430Z,60.89
2022-12-19T15:26:06.974Z,60.76
2022-12-19T15:28:46.609Z,62.00
2022-12-19T15:31:33.244Z,61.96
2022-12-19T15:34:32.833Z,62.39
2022-12-19T15:36:46.948Z,62.36
2022-12-19T15:39:13.723Z,62.73
2022-12-19T15:41:40.363Z,63.41
2022-12-19T15:44:14.322Z,63.80
2022-12-19T15:46:48.098Z,63.83
2022-12-19T15:49:19.312Z,64.10
2022-12-19T15:51:46.243Z,64.46
2022-12-19T15:54:47.218Z,63.96
2022-12-19T15:56:59.577Z,65.40
2022-12-19T15:59:37.430Z,64.82
2022-12-19T16:02:13.787Z,65.01
2022-12-19T16:04:40.659Z,65.91
2022-12-19T16:07:17.805Z,65.93
2022-12-19T16:09:44.927Z,66.23
2022-12-19T16:12:36.677Z,65.40
2022-12-19T16:15:03.901Z,65.32
2022-12-19T16:17:31.901Z,65.25
2022-12-19T16:19:58.612Z,65.64
2022-12-19T16:22:26.460Z,65.80
2022-12-19T16:24:54.228Z,65.99
2022-12-19T16:27:30.485Z,66.33
2022-12-19T16:29:58.976Z,66.07
2022-12-19T16:32:25.860Z,66.35
2022-12-19T16:34:52.888Z,66.56
2022-12-19T16:37:19.602Z,66.22
2022-12-19T16:39:46.294Z,66.51
2022-12-19T16:42:16.220Z,66.59
2022-12-19T16:44:43.572Z,66.52
2022-12-19T16:47:13.955Z,66.62
2022-12-19T16:49:40.655Z,65.97
2022-12-19T16:52:07.359Z,65.77
2022-12-19T16:54:34.113Z,65.73
2022-12-19T16:57:00.759Z,65.07
2022-12-19T16:59:31.420Z,64.29
2022-12-19T17:01:58.166Z,64.76
2022-12-19T17:04:25.072Z,65.01
2022-12-19T17:06:52.459Z,65.11
2022-12-19T17:09:22.855Z,64.91
2022-12-19T17:12:09.677Z,63.48
2022-12-19T17:14:36.342Z,62.81
2022-12-19T17:17:03.091Z,62.45
2022-12-19T17:19:35.013Z,62.13
2022-12-19T17:22:01.685Z,62.87
2022-12-19T17:24:28.305Z,62.54
2022-12-19T17:26:55.058Z,61.14
2022-12-19T17:29:21.684Z,61.83
2022-12-19T17:31:48.361Z,61.92
2022-12-19T17:34:20.264Z,61.99
2022-12-19T17:36:46.932Z,61.69
2022-12-19T17:39:24.122Z,61.69
2022-12-19T17:41:50.878Z,61.86
2022-12-19T17:44:17.615Z,62.29
2022-12-19T17:46:44.948Z,62.41
2022-12-19T17:49:21.354Z,63.39
2022-12-19T17:51:50.067Z,63.38
2022-12-19T17:54:16.726Z,63.89
2022-12-19T17:56:43.598Z,63.59
2022-12-19T17:59:10.309Z,63.19
2022-12-19T18:01:37.118Z,62.57
2022-12-19T18:04:04.023Z,61.65
2022-12-19T18:06:30.659Z,62.59
2022-12-19T18:08:57.301Z,62.02
2022-12-19T18:11:25.378Z,63.27
2022-12-19T18:13:52.857Z,63.01
2022-12-19T18:16:21.742Z,62.43
2022-12-19T18:18:48.445Z,63.25
2022-12-19T18:21:15.965Z,63.12
2022-12-19T18:23:42.720Z,62.00
2022-12-19T18:26:10.483Z,62.69
2022-12-19T18:28:37.210Z,63.18
2022-12-19T18:31:18.148Z,63.19
2022-12-19T18:33:46.318Z,62.71
2022-12-19T18:36:20.232Z,62.79
2022-12-19T18:38:47.556Z,62.66
2022-12-19T18:41:14.600Z,62.21
2022-12-19T18:43:42.538Z,61.58
2022-12-19T18:46:24.805Z,61.71
2022-12-19T18:48:51.547Z,61.49
2022-12-19T18:51:19.701Z,61.02
2022-12-19T18:53:46.879Z,60.71
2022-12-19T18:56:13.621Z,61.00
2022-12-19T18:58:40.474Z,61.30
2022-12-19T19:01:14.709Z,60.03
2022-12-19T19:03:41.495Z,60.07
2022-12-19T19:06:21.041Z,59.59
2022-12-19T19:08:47.740Z,59.90
2022-12-19T19:11:14.649Z,60.42
2022-12-19T19:13:41.912Z,59.90
2022-12-19T19:16:26.698Z,60.63
2022-12-19T19:18:54.531Z,61.12
2022-12-19T19:21:22.535Z,61.63
2022-12-19T19:24:04.079Z,61.92
2022-12-19T19:26:30.738Z,61.02
2022-12-19T19:28:58.529Z,59.99
2022-12-19T19:31:25.651Z,60.07
2022-12-19T19:33:58.021Z,60.66
2022-12-19T19:36:27.547Z,60.33
2022-12-19T19:38:54.768Z,61.16
2022-12-19T19:41:22.284Z,62.84
2022-12-19T19:43:48.937Z,62.94
2022-12-19T19:46:15.626Z,63.68
2022-12-19T19:48:42.313Z,65.15
2022-12-19T19:51:08.984Z,64.02
2022-12-19T19:53:36.156Z,63.98
2022-12-19T19:56:02.859Z,63.95
2022-12-19T19:58:29.503Z,63.94
2022-12-19T20:00:56.154Z,63.85
2022-12-19T20:03:23.856Z,63.39
2022-12-19T20:05:50.851Z,64.13
2022-12-19T20:08:17.531Z,63.63
2022-12-19T20:10:44.241Z,63.55
2022-12-19T20:13:10.897Z,63.22
2022-12-19T20:15:37.612Z,62.56
2022-12-19T20:18:04.314Z,61.91
2022-12-19T20:20:33.064Z,60.67
2022-12-19T20:22:59.764Z,61.21
2022-12-19T20:25:26.539Z,60.65
2022-12-19T20:27:53.213Z,60.50
2022-12-19T20:30:19.876Z,60.05
2022-12-19T20:32:46.516Z,61.48
2022-12-19T20:35:15.000Z,61.24
2022-12-19T20:37:42.275Z,60.69
2022-12-19T20:40:09.562Z,61.62
2022-12-19T20:42:36.168Z,62.25
2022-12-19T20:45:03.074Z,62.06
2022-12-19T20:47:29.707Z,62.76
2022-12-19T20:49:56.364Z,61.96
2022-12-19T20:52:22.989Z,60.63
2022-12-19T20:54:49.609Z,60.00
2022-12-19T20:57:16.277Z,61.12
2022-12-19T20:59:42.913Z,61.72
2022-12-19T21:02:11.538Z,62.01
2022-12-19T21:04:38.769Z,61.83
2022-12-19T21:07:05.524Z,62.19
2022-12-19T21:09:32.428Z,61.07
2022-12-19T21:11:59.105Z,60.91
2022-12-19T21:14:25.782Z,61.50
2022-12-19T21:16:52.420Z,60.89
2022-12-19T21:19:21.440Z,59.86
2022-12-19T21:21:48.124Z,60.62
2022-12-19T21:24:14.804Z,60.22
2022-12-19T21:26:41.459Z,60.90
2022-12-19T21:29:08.174Z,61.41
2022-12-19T21:31:34.904Z,62.43
2022-12-19T21:34:01.706Z,62.50
2022-12-19T21:36:29.168Z,61.82
2022-12-19T21:38:57.197Z,61.34
2022-12-19T21:41:23.886Z,61.60
2022-12-19T21:43:52.158Z,60.97
2022-12-19T21:46:19.725Z,62.02
2022-12-19T21:48:47.812Z,60.87
2022-12-19T21:51:14.626Z,61.46
2022-12-19T21:53:41.319Z,61.87
2022-12-19T21:56:22.431Z,62.26
2022-12-19T21:58:50.680Z,61.57
2022-12-19T22:01:17.432Z,61.59
2022-12-19T22:03:45.248Z,60.94
2022-12-19T22:06:22.390Z,60.83
2022-12-19T22:08:52.258Z,60.98
2022-12-19T22:11:19.870Z,62.18
2022-12-19T22:13:46.993Z,62.60
2022-12-19T22:16:13.713Z,62.54
2022-12-19T22:18:40.371Z,62.82
2022-12-19T22:21:07.841Z,62.54
2022-12-19T22:23:34.551Z,63.39
2022-12-19T22:26:08.864Z,62.87
2022-12-19T22:28:36.988Z,63.77
2022-12-19T22:31:04.328Z,63.95
2022-12-19T22:33:30.997Z,62.62
2022-12-19T22:35:57.682Z,61.67
2022-12-19T22:38:24.486Z,61.48
2022-12-19T22:40:51.477Z,60.68
2022-12-19T22:43:18.132Z,62.13
2022-12-19T22:45:44.791Z,60.95
2022-12-19T22:48:11.482Z,59.79
2022-12-19T22:50:43.649Z,59.08
2022-12-19T22:53:12.842Z,58.96
2022-12-19T22:55:39.925Z,59.23
2022-12-19T22:58:06.725Z,61.21
2022-12-19T23:00:33.357Z,60.76
2022-12-19T23:03:00.246Z,60.46
2022-12-19T23:05:27.453Z,60.79
2022-12-19T23:07:54.121Z,61.61
2022-12-19T23:10:20.790Z,62.26
2022-12-19T23:12:47.492Z,61.77
2022-12-19T23:15:14.252Z,62.33
2022-12-19T23:17:40.984Z,62.83
2022-12-19T23:20:08.533Z,61.27
2022-12-19T23:22:35.168Z,60.82
2022-12-19T23:25:02.041Z,60.49
2022-12-19T23:27:28.708Z,61.38
2022-12-19T23:29:55.327Z,59.68
2022-12-19T23:32:22.014Z,60.20
2022-12-19T23:34:48.712Z,60.32
2022-12-19T23:37:15.355Z,60.48
2022-12-19T23:39:42.010Z,59.97
2022-12-19T23:42:08.944Z,59.88
2022-12-19T23:44:35.864Z,59.85
2022-12-19T23:47:03.765Z,60.11
2022-12-19T23:49:31.608Z,59.92
2022-12-19T23:51:58.250Z,59.19
2022-12-19T23:54:24.867Z,59.68
2022-12-19T23:56:51.507Z,59.38
2022-12-19T23:59:18.167Z,59.51
